createdAt,value
2022-12-09T00:01:43.914Z,97150.38
2022-12-09T00:04:13.167Z,97151.19
2022-12-09T00:06:42.678Z,97150.38
2022-12-09T00:09:18.162Z,97151.03
2022-12-09T00:11:53.378Z,97136.50
2022-12-09T00:14:23.163Z,97141.81
2022-12-09T00:16:52.783Z,97141.81
2022-12-09T00:19:22.350Z,97139.25
2022-12-09T00:21:52.058Z,97130.22
2022-12-09T00:24:23.479Z,97131.81
2022-12-09T00:26:53.062Z,97131.81
2022-12-09T00:29:21.509Z,97134.75
2022-12-09T00:31:51.822Z,97133.44
2022-12-09T00:34:21.925Z,97138.47
2022-12-09T00:36:51.045Z,97142.50
2022-12-09T00:39:21.601Z,97144.59
2022-12-09T00:41:51.742Z,97132.31
2022-12-09T00:44:21.636Z,97142.81
2022-12-09T00:46:51.454Z,97136.19
2022-12-09T00:49:20.947Z,97130.38
2022-12-09T00:51:50.927Z,97125.38
2022-12-09T00:54:22.799Z,97132.16
2022-12-09T00:56:52.534Z,97128.47
2022-12-09T00:59:22.397Z,97122.47
2022-12-09T01:01:53.115Z,97125.69
2022-12-09T01:04:24.793Z,97121.34
2022-12-09T01:06:54.675Z,97127.31
2022-12-09T01:09:24.841Z,97120.38
2022-12-09T01:11:55.913Z,97120.38
2022-12-09T01:14:25.328Z,97117.63
2022-12-09T01:16:54.752Z,97119.44
2022-12-09T01:19:24.547Z,97115.03
2022-12-09T01:21:55.551Z,97123.44
2022-12-09T01:24:26.610Z,97126.66
2022-12-09T01:26:55.277Z,97122.63
2022-12-09T01:29:25.087Z,97115.03
2022-12-09T01:31:56.536Z,97116.50
2022-12-09T01:34:26.183Z,97119.09
2022-12-09T01:36:55.739Z,97120.88
2022-12-09T01:39:26.761Z,97119.25
2022-12-09T01:41:57.145Z,97121.00
2022-12-09T01:44:28.513Z,97119.09
2022-12-09T01:47:00.462Z,97113.94
2022-12-09T01:49:36.160Z,97113.44
2022-12-09T01:52:15.751Z,97110.06
2022-12-09T01:54:48.468Z,97101.50
2022-12-09T01:57:18.038Z,97095.56
2022-12-09T01:59:47.847Z,97091.81
2022-12-09T02:02:20.755Z,97086.34
2022-12-09T02:04:52.353Z,97089.88
2022-12-09T02:07:22.044Z,97089.88
2022-12-09T02:09:53.762Z,97081.31
2022-12-09T02:12:34.745Z,97073.09
2022-12-09T02:15:12.357Z,97081.50
2022-12-09T02:17:50.221Z,97078.91
2022-12-09T02:20:30.760Z,97073.09
2022-12-09T02:23:12.830Z,97072.63
2022-12-09T02:25:48.787Z,97070.22
2022-12-09T02:28:58.189Z,97077.00
2022-12-09T02:31:54.141Z,97074.41
2022-12-09T02:34:31.743Z,97075.38
2022-12-09T02:37:12.569Z,97064.25
2022-12-09T02:39:53.585Z,97059.88
2022-12-09T02:42:30.130Z,97058.25
2022-12-09T02:45:03.798Z,97051.47
2022-12-09T02:47:40.748Z,97056.97
2022-12-09T02:50:17.276Z,97057.31
2022-12-09T02:52:50.084Z,97048.59
2022-12-09T02:55:21.983Z,97050.22
2022-12-09T02:58:01.254Z,97052.00
2022-12-09T03:00:31.681Z,97041.81
2022-12-09T03:03:05.807Z,97039.41
2022-12-09T03:05:48.884Z,97032.31
2022-12-09T03:08:33.365Z,97033.13
2022-12-09T03:11:05.893Z,97028.91
2022-12-09T03:13:53.534Z,97023.13
2022-12-09T03:16:34.936Z,97023.13
2022-12-09T03:19:12.204Z,97022.47
2022-12-09T03:21:47.955Z,97015.38
2022-12-09T03:24:23.780Z,97014.09
2022-12-09T03:26:55.261Z,97015.53
2022-12-09T03:29:28.636Z,97016.34
2022-12-09T03:32:00.559Z,97012.00
2022-12-09T03:34:39.098Z,97015.72
2022-12-09T03:37:12.712Z,97013.13
2022-12-09T03:39:43.993Z,97008.78
2022-12-09T03:42:22.653Z,97005.06
2022-12-09T03:44:58.571Z,97009.41
2022-12-09T03:47:29.566Z,97009.41
2022-12-09T03:50:00.544Z,97009.75
2022-12-09T03:52:39.669Z,97005.72
2022-12-09T03:55:20.469Z,97008.13
2022-12-09T03:57:56.215Z,97009.59
2022-12-09T04:00:26.999Z,97010.56
2022-12-09T04:02:57.272Z,97008.94
2022-12-09T04:05:27.935Z,97013.13
2022-12-09T04:07:58.945Z,97015.72
2022-12-09T04:10:29.166Z,97004.09
2022-12-09T04:12:58.941Z,97008.13
2022-12-09T04:15:28.138Z,97006.34
2022-12-09T04:17:58.113Z,97007.34
2022-12-09T04:20:27.983Z,97006.53
2022-12-09T04:23:00.279Z,97003.47
2022-12-09T04:25:29.757Z,97007.34
2022-12-09T04:28:00.653Z,97007.00
2022-12-09T04:30:30.118Z,97001.50
2022-12-09T04:33:01.500Z,96997.31
2022-12-09T04:35:31.230Z,97001.03
2022-12-09T04:38:03.321Z,96993.44
2022-12-09T04:40:32.628Z,96996.22
2022-12-09T04:43:02.669Z,97002.34
2022-12-09T04:45:32.633Z,97001.84
2022-12-09T04:48:03.298Z,96999.28
2022-12-09T04:50:32.496Z,96994.75
2022-12-09T04:53:04.443Z,96993.78
2022-12-09T04:55:34.925Z,96986.22
2022-12-09T04:58:03.890Z,96987.66
2022-12-09T05:00:33.387Z,96982.03
2022-12-09T05:03:03.859Z,96986.03
2022-12-09T05:05:34.254Z,96987.31
2022-12-09T05:08:05.766Z,96980.25
2022-12-09T05:10:34.702Z,96983.44
2022-12-09T05:13:03.441Z,96974.75
2022-12-09T05:15:33.602Z,96967.97
2022-12-09T05:18:04.010Z,96966.81
2022-12-09T05:20:36.074Z,96966.81
2022-12-09T05:23:09.503Z,96967.63
2022-12-09T05:25:39.974Z,96965.25
2022-12-09T05:28:09.023Z,96962.81
2022-12-09T05:30:39.794Z,96959.91
2022-12-09T05:33:10.068Z,96961.66
2022-12-09T05:35:49.222Z,96957.66
2022-12-09T05:38:23.660Z,96958.94
2022-12-09T05:40:53.670Z,96957.84
2022-12-09T05:43:24.457Z,96957.03
2022-12-09T05:45:53.562Z,96953.44
2022-12-09T05:48:23.564Z,96953.16
2022-12-09T05:50:59.433Z,96956.53
2022-12-09T05:53:30.357Z,96946.72
2022-12-09T05:56:00.813Z,96952.19
2022-12-09T05:58:30.283Z,96952.53
2022-12-09T06:01:06.355Z,96949.78
2022-12-09T06:03:36.643Z,96946.72
2022-12-09T06:06:11.595Z,96949.28
2022-12-09T06:08:45.172Z,96955.41
2022-12-09T06:11:17.437Z,96957.69
2022-12-09T06:13:47.830Z,96949.94
2022-12-09T06:16:20.743Z,96958.66
2022-12-09T06:18:51.451Z,96955.25
2022-12-09T06:21:22.770Z,96953.16
2022-12-09T06:23:53.534Z,96953.81
2022-12-09T06:26:26.153Z,96955.75
2022-12-09T06:28:56.770Z,96952.88
2022-12-09T06:31:26.121Z,96953.63
2022-12-09T06:33:58.115Z,96958.50
2022-12-09T06:36:30.288Z,96959.63
2022-12-09T06:39:09.986Z,96953.97
2022-12-09T06:41:42.956Z,96954.78
2022-12-09T06:44:19.762Z,96952.06
2022-12-09T06:46:53.829Z,96954.78
2022-12-09T06:49:24.826Z,96957.03
2022-12-09T06:51:54.691Z,96956.22
2022-12-09T06:54:24.932Z,96963.34
2022-12-09T06:56:55.084Z,96957.69
2022-12-09T06:59:26.273Z,96964.13
2022-12-09T07:01:57.909Z,96955.75
2022-12-09T07:04:27.483Z,96958.16
2022-12-09T07:06:58.278Z,96956.22
2022-12-09T07:09:30.191Z,96959.75
2022-12-09T07:12:01.110Z,96962.19
2022-12-09T07:14:31.463Z,96963.16
2022-12-09T07:17:02.416Z,96957.34
2022-12-09T07:19:32.982Z,96952.19
2022-12-09T07:22:02.573Z,96957.50
2022-12-09T07:24:34.041Z,96952.81
2022-12-09T07:27:09.665Z,96950.88
2022-12-09T07:29:41.474Z,96952.00
2022-12-09T07:32:12.401Z,96949.28
2022-12-09T07:34:43.186Z,96950.72
2022-12-09T07:37:13.916Z,96952.50
2022-12-09T07:39:44.889Z,96950.56
2022-12-09T07:42:14.464Z,96949.56
2022-12-09T07:44:44.956Z,96945.22
2022-12-09T07:47:15.580Z,96948.63
2022-12-09T07:49:47.040Z,96950.56
2022-12-09T07:52:18.045Z,96942.63
2022-12-09T07:54:49.862Z,96945.41
2022-12-09T07:57:19.721Z,96936.84
2022-12-09T07:59:50.014Z,96939.44
2022-12-09T08:02:20.779Z,96941.03
2022-12-09T08:04:51.088Z,96946.19
2022-12-09T08:07:20.128Z,96952.00
2022-12-09T08:09:54.896Z,96946.03
2022-12-09T08:12:24.878Z,96935.38
2022-12-09T08:14:56.033Z,96947.66
2022-12-09T08:17:27.425Z,96944.13
2022-12-09T08:19:58.181Z,96936.72
2022-12-09T08:22:26.888Z,96942.50
2022-12-09T08:24:57.249Z,96944.44
2022-12-09T08:27:27.409Z,96941.69
2022-12-09T08:29:57.131Z,96939.78
2022-12-09T08:32:27.122Z,96942.16
2022-12-09T08:34:58.300Z,96938.63
2022-12-09T08:37:28.067Z,96935.38
2022-12-09T08:39:58.950Z,96918.13
2022-12-09T08:42:31.787Z,96921.31
2022-12-09T08:45:02.990Z,96930.53
2022-12-09T08:47:34.584Z,96926.81
2022-12-09T08:50:04.222Z,96930.19
2022-12-09T08:52:40.070Z,96923.41
2022-12-09T08:55:11.705Z,96935.03
2022-12-09T08:57:42.529Z,96934.69
2022-12-09T09:00:16.049Z,96926.78
2022-12-09T09:02:45.666Z,96929.03
2022-12-09T09:05:15.656Z,96925.66
2022-12-09T09:07:45.753Z,96923.69
2022-12-09T09:10:18.120Z,96927.25
2022-12-09T09:12:49.255Z,96923.34
2022-12-09T09:15:18.742Z,96912.06
2022-12-09T09:17:51.796Z,96917.06
2022-12-09T09:20:21.682Z,96919.81
2022-12-09T09:22:56.803Z,96924.34
2022-12-09T09:25:31.929Z,96924.97
2022-12-09T09:28:02.293Z,96919.47
2022-12-09T09:30:32.279Z,96914.31
2022-12-09T09:33:01.845Z,96924.28
2022-12-09T09:35:32.969Z,96928.50
2022-12-09T09:38:03.785Z,96921.72
2022-12-09T09:40:36.107Z,96930.25
2022-12-09T09:43:05.691Z,96929.44
2022-12-09T09:45:36.003Z,96927.06
2022-12-09T09:48:06.564Z,96928.50
2022-12-09T09:50:50.438Z,96930.13
2022-12-09T09:53:25.523Z,96929.44
2022-12-09T09:56:02.053Z,96927.53
2022-12-09T09:58:42.805Z,96922.38
2022-12-09T10:01:15.937Z,96915.25
2022-12-09T10:04:00.227Z,96920.25
2022-12-09T10:06:42.405Z,96924.41
2022-12-09T10:09:22.823Z,96920.72
2022-12-09T10:12:04.425Z,96918.47
2022-12-09T10:14:50.613Z,96919.13
2022-12-09T10:17:30.201Z,96919.13
2022-12-09T10:20:08.481Z,96915.91
2022-12-09T10:22:48.229Z,96921.72
2022-12-09T10:25:25.020Z,96913.97
2022-12-09T10:28:05.931Z,96919.78
2022-12-09T10:30:43.920Z,96914.78
2022-12-09T10:33:15.968Z,96920.75
2022-12-09T10:35:47.775Z,96917.19
2022-12-09T10:38:19.071Z,96916.22
2022-12-09T10:41:09.233Z,96909.28
2022-12-09T10:43:42.268Z,96911.03
2022-12-09T10:46:22.040Z,96906.22
2022-12-09T10:49:02.267Z,96912.50
2022-12-09T10:51:35.687Z,96904.22
2022-12-09T10:54:21.926Z,96897.94
2022-12-09T10:57:09.653Z,96899.38
2022-12-09T10:59:43.822Z,96895.81
2022-12-09T11:02:23.727Z,96898.06
2022-12-09T11:04:52.691Z,96900.81
2022-12-09T11:07:25.179Z,96892.91
2022-12-09T11:10:18.144Z,96885.44
2022-12-09T11:12:54.000Z,96885.09
2022-12-09T11:15:45.081Z,96879.59
2022-12-09T11:18:22.944Z,96875.06
2022-12-09T11:21:02.485Z,96873.91
2022-12-09T11:23:32.918Z,96870.19
2022-12-09T11:26:07.716Z,96871.44
2022-12-09T11:28:39.372Z,96870.47
2022-12-09T11:31:30.441Z,96872.09
2022-12-09T11:34:08.295Z,96875.94
2022-12-09T11:36:44.392Z,96865.59
2022-12-09T11:39:36.546Z,96864.59
2022-12-09T11:42:22.069Z,96862.03
2022-12-09T11:44:59.292Z,96858.47
2022-12-09T11:47:57.135Z,96858.63
2022-12-09T11:50:31.779Z,96855.63
2022-12-09T11:53:27.944Z,96854.47
2022-12-09T11:56:08.091Z,96851.88
2022-12-09T11:58:44.676Z,96862.47
2022-12-09T12:01:23.845Z,96856.19
2022-12-09T12:03:59.063Z,96849.88
2022-12-09T12:06:41.433Z,96843.53
2022-12-09T12:09:21.151Z,96842.38
2022-12-09T12:12:02.677Z,96853.16
2022-12-09T12:14:33.111Z,96843.84
2022-12-09T12:17:17.034Z,96844.44
2022-12-09T12:19:52.429Z,96844.09
2022-12-09T12:23:20.863Z,96845.88
2022-12-09T12:26:03.899Z,96840.53
2022-12-09T12:29:16.685Z,96842.16
2022-12-09T12:32:51.649Z,96832.78
2022-12-09T12:35:55.543Z,96834.22
2022-12-09T12:38:40.409Z,96832.28
2022-12-09T12:41:18.739Z,96828.88
2022-12-09T12:44:23.661Z,96826.28
2022-12-09T12:47:06.691Z,96831.47
2022-12-09T12:50:07.580Z,96834.66
2022-12-09T12:52:56.955Z,96829.50
2022-12-09T12:55:56.415Z,96823.88
2022-12-09T12:58:51.558Z,96830.19
2022-12-09T13:01:32.052Z,96825.84
2022-12-09T13:04:22.319Z,96834.41
2022-12-09T13:06:58.659Z,96827.00
2022-12-09T13:09:39.745Z,96833.75
2022-12-09T13:12:18.002Z,96825.84
2022-12-09T13:14:56.243Z,96820.66
2022-12-09T13:17:31.133Z,96830.19
2022-12-09T13:20:05.648Z,96835.03
2022-12-09T13:22:49.158Z,96820.31
2022-12-09T13:25:30.830Z,96821.13
2022-12-09T13:28:09.303Z,96821.13
2022-12-09T13:30:51.068Z,96814.00
2022-12-09T13:33:52.419Z,96822.38
2022-12-09T13:36:35.952Z,96818.19
2022-12-09T13:39:06.680Z,96817.91
2022-12-09T13:42:03.207Z,96817.91
2022-12-09T13:44:38.489Z,96822.72
2022-12-09T13:47:29.252Z,96819.16
2022-12-09T13:50:03.816Z,96817.22
2022-12-09T13:52:48.438Z,96817.38
2022-12-09T13:55:50.068Z,96813.38
2022-12-09T13:59:02.076Z,96809.97
2022-12-09T14:01:42.933Z,96812.38
2022-12-09T14:04:20.057Z,96817.53
2022-12-09T14:07:10.129Z,96810.44
2022-12-09T14:09:49.628Z,96814.63
2022-12-09T14:13:06.623Z,96813.63
2022-12-09T14:15:41.642Z,96819.63
2022-12-09T14:18:33.837Z,96813.19
2022-12-09T14:21:30.320Z,96824.16
2022-12-09T14:24:36.981Z,96823.88
2022-12-09T14:27:23.295Z,96829.75
2022-12-09T14:29:56.611Z,96827.31
2022-12-09T14:32:33.000Z,96832.50
2022-12-09T14:35:21.954Z,96836.69
2022-12-09T14:38:22.426Z,96842.84
2022-12-09T14:41:03.910Z,96832.16
2022-12-09T14:44:08.592Z,96842.06
2022-12-09T14:46:40.353Z,96841.25
2022-12-09T14:49:19.797Z,96851.28
2022-12-09T14:51:51.962Z,96846.31
2022-12-09T14:54:26.915Z,96845.97
2022-12-09T14:57:00.332Z,96843.88
2022-12-09T14:59:32.650Z,96843.06
2022-12-09T15:02:04.399Z,96854.47
2022-12-09T15:04:41.982Z,96859.78
2022-12-09T15:07:15.556Z,96862.25
2022-12-09T15:09:55.093Z,96856.75
2022-12-09T15:12:31.874Z,96853.03
2022-12-09T15:15:13.245Z,96862.22
2022-12-09T15:17:46.710Z,96860.25
2022-12-09T15:20:29.136Z,96864.59
2022-12-09T15:23:01.847Z,96861.41
2022-12-09T15:25:31.860Z,96863.38
2022-12-09T15:28:04.421Z,96864.00
2022-12-09T15:30:37.292Z,96864.34
2022-12-09T15:33:17.413Z,96870.81
2022-12-09T15:35:57.542Z,96869.38
2022-12-09T15:38:38.954Z,96873.09
2022-12-09T15:41:29.229Z,96869.91
2022-12-09T15:44:04.773Z,96879.88
2022-12-09T15:46:39.386Z,96877.75
2022-12-09T15:49:13.774Z,96877.59
2022-12-09T15:51:47.191Z,96880.19
2022-12-09T15:54:23.495Z,96885.50
2022-12-09T15:56:58.700Z,96882.31
2022-12-09T15:59:37.253Z,96881.50
2022-12-09T16:02:07.720Z,96879.88
2022-12-09T16:04:43.421Z,96882.47
2022-12-09T16:07:18.803Z,96886.19
2022-12-09T16:10:10.198Z,96885.25
2022-12-09T16:12:40.718Z,96889.59
2022-12-09T16:15:15.114Z,96888.66
2022-12-09T16:17:56.171Z,96882.22
2022-12-09T16:20:35.226Z,96888.81
2022-12-09T16:23:08.180Z,96889.63
2022-12-09T16:25:42.052Z,96890.25
2022-12-09T16:28:24.707Z,96890.25
2022-12-09T16:31:00.554Z,96885.91
2022-12-09T16:33:35.444Z,96888.66
2022-12-09T16:36:10.186Z,96893.03
2022-12-09T16:38:40.721Z,96894.19
2022-12-09T16:41:15.384Z,96891.28
2022-12-09T16:44:21.325Z,96893.88
2022-12-09T16:46:50.549Z,96893.41
2022-12-09T16:49:19.509Z,96889.66
2022-12-09T16:51:50.022Z,96890.69
2022-12-09T16:54:21.007Z,96893.75
2022-12-09T16:56:52.401Z,96892.94
2022-12-09T16:59:21.240Z,96888.13
2022-12-09T17:01:51.109Z,96885.19
2022-12-09T17:04:25.110Z,96878.28
2022-12-09T17:06:55.149Z,96887.50
2022-12-09T17:09:25.320Z,96889.88
2022-12-09T17:11:54.981Z,96902.66
2022-12-09T17:14:25.065Z,96885.88
2022-12-09T17:16:54.428Z,96888.59
2022-12-09T17:19:23.622Z,96896.19
2022-12-09T17:21:52.592Z,96901.53
2022-12-09T17:24:21.945Z,96904.28
2022-12-09T17:26:52.434Z,96902.31
2022-12-09T17:29:21.800Z,96915.09
2022-12-09T17:31:51.901Z,96912.31
2022-12-09T17:34:21.803Z,96909.72
2022-12-09T17:36:51.999Z,96907.97
2022-12-09T17:39:24.730Z,96919.59
2022-12-09T17:41:55.071Z,96920.75
2022-12-09T17:44:24.607Z,96926.38
2022-12-09T17:46:54.384Z,96928.97
2022-12-09T17:49:23.669Z,96932.69
2022-12-09T17:51:52.576Z,96935.09
2022-12-09T17:54:22.143Z,96930.72
2022-12-09T17:56:51.717Z,96934.94
2022-12-09T17:59:23.299Z,96935.09
2022-12-09T18:01:53.040Z,96931.41
2022-12-09T18:04:23.034Z,96940.44
2022-12-09T18:06:52.307Z,96927.41
2022-12-09T18:09:22.697Z,96935.78
2022-12-09T18:11:52.721Z,96937.38
2022-12-09T18:14:25.501Z,96931.75
2022-12-09T18:16:54.590Z,96926.59
2022-12-09T18:19:25.109Z,96934.00
2022-12-09T18:21:56.093Z,96942.41
2022-12-09T18:24:24.989Z,96931.09
2022-12-09T18:26:53.501Z,96937.41
2022-12-09T18:29:24.178Z,96932.09
2022-12-09T18:31:56.421Z,96930.81
2022-12-09T18:34:26.494Z,96934.00
2022-12-09T18:36:56.043Z,96943.38
2022-12-09T18:39:24.599Z,96946.31
2022-12-09T18:41:54.529Z,96947.09
2022-12-09T18:44:25.719Z,96955.34
2022-12-09T18:46:54.203Z,96959.53
2022-12-09T18:49:27.138Z,96965.50
2022-12-09T18:51:57.028Z,96964.38
2022-12-09T18:54:31.163Z,96960.16
2022-12-09T18:57:01.788Z,96962.13
2022-12-09T18:59:32.920Z,96965.81
2022-12-09T19:02:01.519Z,96954.38
2022-12-09T19:04:31.321Z,96964.69
2022-12-09T19:07:02.160Z,96958.06
2022-12-09T19:09:35.869Z,96961.16
2022-12-09T19:12:38.342Z,96962.13
2022-12-09T19:14:57.951Z,96966.66
2022-12-09T19:17:26.332Z,96961.50
2022-12-09T19:19:55.081Z,96958.13
2022-12-09T19:22:24.845Z,96960.22
2022-12-09T19:24:53.776Z,96958.13
2022-12-09T19:27:23.584Z,96967.50
2022-12-09T19:29:53.113Z,96961.34
2022-12-09T19:32:51.846Z,96967.16
2022-12-09T19:35:13.018Z,96963.75
2022-12-09T19:37:41.831Z,96958.59
2022-12-09T19:40:12.759Z,96956.84
2022-12-09T19:42:43.313Z,96964.56
2022-12-09T19:45:14.541Z,96958.94
2022-12-09T19:47:44.559Z,96966.81
2022-12-09T19:50:13.575Z,96960.88
2022-12-09T19:52:44.025Z,96964.09
2022-12-09T19:55:13.535Z,96969.59
2022-12-09T19:57:42.626Z,96972.31
2022-12-09T20:00:15.195Z,96969.13
2022-12-09T20:02:45.818Z,96964.75
2022-12-09T20:05:15.156Z,96971.38
2022-12-09T20:07:44.905Z,96973.13
2022-12-09T20:10:15.105Z,96973.31
2022-12-09T20:12:44.115Z,96973.66
2022-12-09T20:15:13.077Z,96976.03
2022-12-09T20:17:42.461Z,96977.66
2022-12-09T20:20:13.143Z,96974.47
2022-12-09T20:22:41.543Z,96977.66
2022-12-09T20:25:11.312Z,96979.63
2022-12-09T20:27:41.357Z,96982.03
2022-12-09T20:30:11.606Z,96974.94
2022-12-09T20:32:41.604Z,96978.28
2022-12-09T20:35:13.480Z,96989.28
2022-12-09T20:37:44.009Z,96988.31
2022-12-09T20:40:14.214Z,96987.31
2022-12-09T20:42:43.403Z,96990.09
2022-12-09T20:45:13.381Z,96994.25
2022-12-09T20:47:42.228Z,96998.63
2022-12-09T20:50:16.568Z,97001.03
2022-12-09T20:52:46.650Z,97006.88
2022-12-09T20:55:16.473Z,97000.88
2022-12-09T20:57:45.697Z,97002.47
2022-12-09T21:00:17.686Z,96998.31
2022-12-09T21:02:46.743Z,96994.91
2022-12-09T21:05:19.275Z,96994.09
2022-12-09T21:07:48.312Z,97005.25
2022-12-09T21:10:17.249Z,97000.56
2022-12-09T21:12:46.961Z,97001.84
2022-12-09T21:15:17.090Z,97000.75
2022-12-09T21:17:48.464Z,97009.25
2022-12-09T21:20:19.117Z,97004.28
2022-12-09T21:23:04.579Z,97017.00
2022-12-09T21:25:37.676Z,97011.53
2022-12-09T21:28:07.178Z,97009.25
2022-12-09T21:30:39.100Z,97016.69
2022-12-09T21:33:08.713Z,97014.59
2022-12-09T21:35:43.868Z,97020.56
2022-12-09T21:38:13.001Z,97017.00
2022-12-09T21:40:42.679Z,97026.03
2022-12-09T21:43:12.559Z,97027.19
2022-12-09T21:45:41.892Z,97021.88
2022-12-09T21:48:11.931Z,97031.03
2022-12-09T21:50:42.596Z,97038.94
2022-12-09T21:53:11.074Z,97038.44
2022-12-09T21:55:40.890Z,97023.78
2022-12-09T21:58:10.359Z,97025.72
2022-12-09T22:00:40.192Z,97033.47
2022-12-09T22:03:08.906Z,97038.63
2022-12-09T22:05:38.154Z,97036.69
2022-12-09T22:08:09.950Z,97041.84
2022-12-09T22:10:39.846Z,97041.19
2022-12-09T22:13:08.522Z,97042.97
2022-12-09T22:15:38.296Z,97049.28
2022-12-09T22:18:08.557Z,97046.38
2022-12-09T22:21:15.950Z,97047.31
2022-12-09T22:23:28.523Z,97044.91
2022-12-09T22:25:58.227Z,97041.53
2022-12-09T22:28:26.798Z,97048.59
2022-12-09T22:30:56.809Z,97040.88
2022-12-09T22:33:26.001Z,97047.66
2022-12-09T22:35:55.668Z,97042.50
2022-12-09T22:38:27.694Z,97046.84
2022-12-09T22:40:56.842Z,97048.78
2022-12-09T22:43:27.124Z,97051.50
2022-12-09T22:45:56.282Z,97048.78
2022-12-09T22:48:25.811Z,97046.03
2022-12-09T22:50:55.982Z,97043.44
2022-12-09T22:53:27.007Z,97048.94
2022-12-09T22:55:56.577Z,97048.94
2022-12-09T22:58:25.140Z,97050.72
2022-12-09T23:00:54.585Z,97048.28
2022-12-09T23:03:24.582Z,97045.38
2022-12-09T23:05:54.171Z,97048.13
2022-12-09T23:08:23.346Z,97047.31
2022-12-09T23:10:54.421Z,97048.13
2022-12-09T23:13:23.424Z,97051.34
2022-12-09T23:15:53.111Z,97057.31
2022-12-09T23:18:22.703Z,97062.47
2022-12-09T23:20:51.168Z,97066.00
2022-12-09T23:23:21.159Z,97055.41
2022-12-09T23:25:50.210Z,97057.50
2022-12-09T23:28:20.908Z,97056.34
2022-12-09T23:30:51.054Z,97064.88
2022-12-09T23:33:21.305Z,97057.81
2022-12-09T23:35:50.973Z,97067.00
2022-12-09T23:38:19.935Z,97068.94
2022-12-09T23:40:53.204Z,97064.06
2022-12-09T23:43:24.796Z,97065.38
2022-12-09T23:45:54.790Z,97065.19
2022-12-09T23:48:24.223Z,97066.00
2022-12-09T23:50:53.978Z,97066.00
2022-12-09T23:53:23.094Z,97073.59
2022-12-09T23:55:52.907Z,97064.88
2022-12-09T23:58:24.050Z,97059.72
